CheckWX is a tool to help pilots better visualize weather data.  It is not intended as a substitute for an official pre-flight weather briefing.

12:11:38 UTC

LQTZ METAR
Tuzla International Airport
Tuzla, Bosnia and Herzegovina
Current

12 mins ago

LQTZ 041200Z VRB04KT 9999 SCT035 26/15 Q1017
Observed
Jul-4 @ 12:00 UTC
Wind
  • Variable at 4 KTS
Visibility
10,000+ meters
Flight Rules
VFR
Cloud Levels
  • Scattered at 3,500' AGL
Temperature
26°C / 79°F
Dewpoint
15°C / 59°F
Humidity
51%
Altimeter
30.03" Hg
Pressure
1016.92 hPa
Previous

42 mins ago

LQTZ 041130Z VRB04KT 9999 SCT035 26/15 Q1017
Observed
Jul-4 @ 11:30 UTC
Wind
  • Variable at 4 KTS
Visibility
10,000+ meters
Flight Rules
VFR
Cloud Levels
  • Scattered at 3,500' AGL
Temperature
26°C / 79°F
Dewpoint
15°C / 59°F
Humidity
51%
Altimeter
30.03" Hg
Pressure
1016.92 hPa
Previous

1 hour ago

LQTZ 041100Z VRB05KT 9999 SCT035 26/15 Q1017
Observed
Jul-4 @ 11:00 UTC
Wind
  • Variable at 5 KTS
Visibility
10,000+ meters
Flight Rules
VFR
Cloud Levels
  • Scattered at 3,500' AGL
Temperature
26°C / 79°F
Dewpoint
15°C / 59°F
Humidity
51%
Altimeter
30.03" Hg
Pressure
1016.92 hPa